Time;durP1;ratioP1;P1;durP2;ratioP2;P2;SDS_P1;SDS_P2;PMS_P1;PMS_P2;Temp;Humidity;BMP_temperature;BMP_pressure;BME280_temperature;BME280_humidity;BME280_pressure;Samples;Min_cycle;Max_cycle;Signal;HPM_P1;HPM_P2
2021/11/27 00:00:17;;;;;;;10.85;8.73;;;4.50;99.90;;;;;;5033844;28;20712;-59
2021/11/27 00:02:45;;;;;;;10.57;8.10;;;4.50;99.90;;;;;;5034005;28;20276;-58
2021/11/27 00:05:14;;;;;;;9.25;8.13;;;4.50;99.90;;;;;;5034180;28;20706;-58
2021/11/27 00:07:41;;;;;;;14.30;9.73;;;4.60;99.90;;;;;;5040436;28;20201;-58
2021/11/27 00:10:12;;;;;;;10.88;8.57;;;4.60;99.90;;;;;;5055960;28;20202;-59
2021/11/27 00:12:40;;;;;;;10.48;8.82;;;4.60;99.90;;;;;;5054972;28;20784;-59
2021/11/27 00:15:09;;;;;;;11.02;9.68;;;4.60;99.90;;;;;;5052208;28;20222;-59
2021/11/27 00:17:38;;;;;;;13.20;8.90;;;4.70;99.90;;;;;;5041658;28;20213;-60
2021/11/27 00:20:08;;;;;;;10.10;8.25;;;4.70;99.90;;;;;;5034402;28;20199;-59
2021/11/27 00:22:35;;;;;;;10.07;8.48;;;4.70;99.90;;;;;;5035160;28;20761;-60
2021/11/27 00:25:03;;;;;;;9.57;8.00;;;4.60;99.90;;;;;;5037978;28;20261;-59
2021/11/27 00:27:30;;;;;;;12.48;9.13;;;4.70;99.90;;;;;;5038343;28;20237;-59
2021/11/27 00:29:57;;;;;;;9.27;7.43;;;4.70;99.90;;;;;;5037847;28;20292;-60
2021/11/27 00:32:26;;;;;;;9.48;7.75;;;4.70;99.90;;;;;;5037912;28;20226;-59
2021/11/27 00:34:53;;;;;;;10.50;7.88;;;4.70;99.90;;;;;;5037839;28;20233;-59
2021/11/27 00:37:21;;;;;;;9.05;6.90;;;4.70;99.90;;;;;;5037540;28;20296;-58
2021/11/27 00:39:48;;;;;;;8.35;7.55;;;4.60;99.90;;;;;;5037665;28;20293;-58
2021/11/27 00:42:15;;;;;;;9.43;8.05;;;4.60;99.90;;;;;;5037433;28;20198;-59
2021/11/27 00:44:43;;;;;;;10.98;8.00;;;4.60;99.90;;;;;;5037489;28;20725;-58
2021/11/27 00:47:11;;;;;;;8.55;6.72;;;4.70;99.90;;;;;;5037047;28;20248;-58
2021/11/27 00:49:40;;;;;;;9.30;7.65;;;4.70;99.90;;;;;;5037530;28;20241;-59
2021/11/27 00:52:07;;;;;;;10.82;8.43;;;4.70;99.90;;;;;;5037183;28;20230;-58
2021/11/27 00:54:35;;;;;;;9.90;7.97;;;4.70;99.90;;;;;;5036952;28;20305;-60
2021/11/27 00:57:03;;;;;;;12.40;7.40;;;4.70;99.90;;;;;;5036883;28;20199;-59
2021/11/27 00:59:30;;;;;;;9.68;8.15;;;4.70;99.90;;;;;;5037245;28;20210;-59
2021/11/27 01:01:57;;;;;;;11.65;8.00;;;4.70;99.90;;;;;;5036603;28;20213;-59
2021/11/27 01:04:26;;;;;;;9.27;8.32;;;4.70;99.90;;;;;;5036447;28;20246;-58
2021/11/27 01:06:55;;;;;;;8.27;7.18;;;4.70;99.90;;;;;;5036569;28;20252;-59
2021/11/27 01:09:22;;;;;;;9.88;7.78;;;4.70;99.90;;;;;;5036665;28;20286;-59
2021/11/27 01:11:53;;;;;;;12.15;8.32;;;4.70;99.90;;;;;;5036907;28;20233;-58
2021/11/27 01:14:23;;;;;;;10.05;8.13;;;4.70;99.90;;;;;;5036634;28;20262;-59
2021/11/27 01:16:53;;;;;;;9.35;8.00;;;4.60;99.90;;;;;;5036695;28;20256;-59
2021/11/27 01:19:23;;;;;;;9.20;7.35;;;4.60;99.90;;;;;;5036576;28;20238;-60
2021/11/27 01:21:55;;;;;;;9.50;8.05;;;4.60;99.90;;;;;;5038343;28;20238;-60
2021/11/27 01:24:25;;;;;;;8.30;7.20;;;4.70;99.90;;;;;;5038214;28;20674;-58
2021/11/27 01:26:54;;;;;;;10.93;8.25;;;4.60;99.90;;;;;;5038533;28;20293;-59
2021/11/27 01:29:21;;;;;;;7.75;6.95;;;4.60;99.90;;;;;;5038935;28;20210;-58
2021/11/27 01:31:49;;;;;;;8.07;6.13;;;4.60;99.90;;;;;;5037084;28;20289;-59
2021/11/27 01:34:16;;;;;;;8.32;6.03;;;4.60;99.90;;;;;;5036697;28;20265;-59
2021/11/27 01:36:44;;;;;;;9.68;7.15;;;4.50;99.90;;;;;;5035976;28;20203;-59
2021/11/27 01:39:12;;;;;;;7.70;6.65;;;4.50;99.90;;;;;;5036171;28;20210;-58
2021/11/27 01:41:41;;;;;;;7.97;6.18;;;4.50;99.90;;;;;;5036352;28;20290;-59
2021/11/27 01:44:10;;;;;;;8.43;6.78;;;4.50;99.90;;;;;;5035770;28;20241;-59
2021/11/27 01:46:38;;;;;;;7.30;6.03;;;4.50;99.90;;;;;;5036313;28;20237;-60
2021/11/27 01:49:07;;;;;;;11.65;8.38;;;4.40;99.90;;;;;;5036322;28;20202;-61
2021/11/27 01:51:36;;;;;;;9.90;7.18;;;4.40;99.90;;;;;;5035897;28;20248;-58
2021/11/27 01:54:07;;;;;;;7.30;6.15;;;4.40;99.90;;;;;;5035580;28;20689;-59
2021/11/27 01:56:40;;;;;;;8.52;6.03;;;4.30;99.90;;;;;;5035916;28;20693;-58
2021/11/27 01:59:08;;;;;;;8.50;7.00;;;4.20;99.90;;;;;;5035875;28;20280;-59
2021/11/27 02:01:36;;;;;;;8.63;6.80;;;4.20;99.90;;;;;;5035698;28;20206;-59
2021/11/27 02:04:06;;;;;;;7.63;6.90;;;4.10;99.90;;;;;;5035796;28;20313;-58
2021/11/27 02:06:35;;;;;;;8.02;6.55;;;4.10;99.90;;;;;;5040762;28;20256;-59
2021/11/27 02:09:04;;;;;;;7.97;6.43;;;4.10;99.90;;;;;;5048581;28;20230;-58
2021/11/27 02:11:34;;;;;;;8.68;7.78;;;4.10;99.90;;;;;;5049336;28;20213;-58
2021/11/27 02:14:04;;;;;;;8.57;7.68;;;4.10;99.90;;;;;;5044528;28;20218;-58
2021/11/27 02:16:31;;;;;;;9.57;7.00;;;4.10;99.90;;;;;;5045233;28;20234;-58
2021/11/27 02:18:59;;;;;;;8.75;7.32;;;4.10;99.90;;;;;;5044616;28;20241;-58
2021/11/27 02:21:27;;;;;;;7.75;6.88;;;4.20;99.90;;;;;;5040426;28;20253;-58
2021/11/27 02:23:55;;;;;;;9.05;7.13;;;4.20;99.90;;;;;;5036959;28;20709;-58
2021/11/27 02:26:27;;;;;;;8.63;6.75;;;4.20;99.90;;;;;;5040644;28;20685;-59
2021/11/27 02:28:56;;;;;;;8.48;7.25;;;4.20;99.90;;;;;;5036006;28;20282;-59
2021/11/27 02:31:24;;;;;;;8.82;7.07;;;4.20;99.90;;;;;;5035445;28;20233;-59
2021/11/27 02:33:52;;;;;;;6.75;6.00;;;4.30;99.90;;;;;;5034797;28;20222;-59
2021/11/27 02:36:20;;;;;;;7.13;5.80;;;4.30;99.90;;;;;;5034967;28;20302;-58
2021/11/27 02:38:49;;;;;;;6.65;5.93;;;4.30;99.90;;;;;;5034920;28;20297;-58
2021/11/27 02:41:16;;;;;;;7.85;6.47;;;4.30;99.90;;;;;;5035168;28;20237;-60
2021/11/27 02:43:44;;;;;;;8.65;5.90;;;4.30;99.90;;;;;;5035071;28;20309;-58
2021/11/27 02:46:11;;;;;;;6.60;5.60;;;4.40;99.90;;;;;;5034907;28;20234;-58
2021/11/27 02:48:38;;;;;;;7.32;5.47;;;4.40;99.90;;;;;;5033998;28;20293;-58
2021/11/27 02:51:05;;;;;;;9.63;7.32;;;4.40;99.90;;;;;;5036504;28;20238;-59
2021/11/27 02:53:33;;;;;;;6.78;6.07;;;4.40;99.90;;;;;;5037107;28;20318;-61
2021/11/27 02:56:03;;;;;;;6.57;5.75;;;4.40;99.90;;;;;;5036986;28;20257;-59
2021/11/27 02:58:31;;;;;;;5.28;4.78;;;4.40;99.90;;;;;;5036299;28;20222;-59
2021/11/27 03:01:01;;;;;;;6.40;5.30;;;4.40;99.90;;;;;;5036067;28;20249;-59
2021/11/27 03:03:28;;;;;;;7.00;6.00;;;4.40;99.90;;;;;;5035810;28;20317;-58
2021/11/27 03:05:55;;;;;;;7.47;5.15;;;4.50;99.90;;;;;;5037154;28;20289;-58
2021/11/27 03:08:23;;;;;;;5.32;4.45;;;4.50;99.90;;;;;;5037174;28;20245;-59
2021/11/27 03:10:50;;;;;;;6.38;5.10;;;4.50;99.90;;;;;;5037290;28;20222;-59
2021/11/27 03:13:26;;;;;;;12.98;9.80;;;4.50;99.90;;;;;;5036975;28;20309;-58
2021/11/27 03:15:53;;;;;;;6.22;5.55;;;4.50;99.90;;;;;;5036566;28;20213;-59
2021/11/27 03:18:21;;;;;;;6.60;5.95;;;4.50;99.90;;;;;;5039045;28;20221;-58
2021/11/27 03:20:49;;;;;;;5.97;5.38;;;4.50;99.90;;;;;;5037102;28;20217;-59
2021/11/27 03:23:17;;;;;;;6.70;5.93;;;4.50;99.90;;;;;;5036735;28;20725;-59
2021/11/27 03:25:44;;;;;;;5.90;5.30;;;4.60;99.90;;;;;;5037373;28;20206;-60
2021/11/27 03:28:11;;;;;;;8.23;6.15;;;4.60;99.90;;;;;;5036665;28;20234;-59
2021/11/27 03:30:41;;;;;;;6.25;4.90;;;4.60;99.90;;;;;;5037404;28;20221;-58
2021/11/27 03:33:08;;;;;;;5.30;4.80;;;4.60;99.90;;;;;;5041725;28;20250;-58
2021/11/27 03:35:36;;;;;;;5.72;4.70;;;4.60;99.90;;;;;;5041024;28;20250;-59
2021/11/27 03:38:04;;;;;;;5.90;5.30;;;4.60;99.90;;;;;;5039943;28;20213;-59
2021/11/27 03:40:32;;;;;;;6.35;5.80;;;4.60;99.90;;;;;;5039587;28;20240;-57
2021/11/27 03:43:00;;;;;;;6.22;5.22;;;4.60;99.90;;;;;;5037652;28;20258;-58
2021/11/27 03:45:28;;;;;;;6.60;5.35;;;4.60;99.90;;;;;;5036224;28;20202;-59
2021/11/27 03:48:01;;;;;;;8.50;5.95;;;4.60;99.90;;;;;;5035883;28;20293;-59
2021/11/27 03:50:33;;;;;;;5.97;5.38;;;4.60;99.90;;;;;;5036043;28;20274;-58
2021/11/27 03:53:01;;;;;;;5.65;4.90;;;4.70;99.90;;;;;;5036303;28;20261;-59
2021/11/27 03:55:29;;;;;;;6.00;5.40;;;4.70;99.90;;;;;;5035675;28;20265;-59
2021/11/27 03:57:56;;;;;;;6.45;5.85;;;4.60;99.90;;;;;;5036658;28;20298;-58
2021/11/27 04:00:23;;;;;;;6.35;5.43;;;4.70;99.90;;;;;;5036252;28;20234;-59
2021/11/27 04:02:51;;;;;;;8.30;6.60;;;4.70;99.90;;;;;;5035248;28;20313;-59
2021/11/27 04:05:20;;;;;;;7.22;6.32;;;4.70;99.90;;;;;;5036524;28;20236;-59
2021/11/27 04:09:00;;;;;;;8.55;6.60;;;4.70;99.90;;;;;;5094225;27;20566;-59
2021/11/27 04:11:27;;;;;;;7.10;6.40;;;4.70;99.90;;;;;;5091778;28;20676;-59
2021/11/27 04:13:55;;;;;;;7.05;5.32;;;4.80;99.90;;;;;;5090914;28;20402;-58
2021/11/27 04:16:23;;;;;;;7.07;6.00;;;4.80;99.90;;;;;;5090604;28;20287;-58
2021/11/27 04:18:50;;;;;;;6.32;5.68;;;4.70;99.90;;;;;;5112108;22;20295;-56
2021/11/27 04:21:19;;;;;;;7.75;6.95;;;4.70;99.90;;;;;;5051023;28;20283;-55
2021/11/27 04:23:46;;;;;;;7.40;6.28;;;4.70;99.90;;;;;;5051341;28;20209;-56
2021/11/27 04:26:15;;;;;;;6.90;6.20;;;4.70;99.90;;;;;;5050702;28;20240;-55
2021/11/27 04:28:43;;;;;;;6.68;5.53;;;4.70;99.90;;;;;;5050068;28;20733;-56
2021/11/27 04:31:11;;;;;;;7.03;6.32;;;4.70;99.90;;;;;;5050757;28;20276;-55
2021/11/27 04:33:38;;;;;;;5.15;4.65;;;4.80;99.90;;;;;;5050352;28;20293;-55
2021/11/27 04:36:08;;;;;;;8.80;7.03;;;4.80;99.90;;;;;;5050590;28;20201;-55
2021/11/27 04:38:35;;;;;;;5.60;5.07;;;4.80;99.90;;;;;;5052198;28;20194;-55
2021/11/27 04:41:03;;;;;;;5.85;5.20;;;4.80;99.90;;;;;;5050395;28;20253;-55
2021/11/27 04:43:32;;;;;;;6.72;6.07;;;4.80;99.90;;;;;;5050242;28;20198;-55
2021/11/27 04:45:59;;;;;;;5.93;5.32;;;4.80;99.90;;;;;;5050252;28;20234;-54
2021/11/27 04:48:27;;;;;;;7.38;6.60;;;4.80;99.90;;;;;;5050048;28;20222;-55
2021/11/27 04:50:54;;;;;;;5.78;5.18;;;4.80;99.90;;;;;;5050124;28;20316;-55
2021/11/27 04:53:21;;;;;;;5.50;4.93;;;4.90;99.90;;;;;;5050990;28;20721;-55
2021/11/27 04:55:48;;;;;;;5.40;4.90;;;4.90;99.90;;;;;;5049975;28;20233;-55
2021/11/27 04:58:16;;;;;;;6.05;4.30;;;4.90;99.90;;;;;;5049931;28;20240;-56
2021/11/27 05:00:46;;;;;;;5.30;4.80;;;4.90;99.90;;;;;;5050537;28;20634;-54
2021/11/27 05:03:14;;;;;;;4.65;4.35;;;4.90;99.90;;;;;;5050779;28;20240;-54
2021/11/27 05:05:41;;;;;;;5.68;5.15;;;4.90;99.90;;;;;;5049743;28;20297;-54
2021/11/27 05:08:08;;;;;;;7.00;5.80;;;4.90;99.90;;;;;;5049957;28;20260;-55
2021/11/27 05:10:36;;;;;;;5.85;5.25;;;4.90;99.90;;;;;;5049715;28;20375;-55
2021/11/27 05:13:04;;;;;;;7.07;5.45;;;5.00;99.90;;;;;;5049364;28;20202;-54
2021/11/27 05:15:31;;;;;;;5.70;5.20;;;4.90;99.90;;;;;;5049598;28;20544;-54
2021/11/27 05:18:00;;;;;;;5.38;4.82;;;4.90;99.90;;;;;;5049145;28;20280;-55
2021/11/27 05:20:27;;;;;;;7.00;5.80;;;4.90;99.90;;;;;;5035182;28;20317;-54
2021/11/27 05:22:55;;;;;;;5.20;4.70;;;4.90;99.90;;;;;;5036697;28;20249;-55
2021/11/27 05:25:22;;;;;;;4.72;4.32;;;4.90;99.90;;;;;;5036133;28;20238;-54
2021/11/27 05:27:49;;;;;;;4.60;4.15;;;4.90;99.90;;;;;;5035580;28;20317;-55
2021/11/27 05:30:17;;;;;;;4.50;3.90;;;4.90;99.90;;;;;;5035714;28;20262;-55
2021/11/27 05:35:31;;;;;;;7.75;5.93;;;5.00;99.90;;;;;;5035983;28;20182;-54
2021/11/27 05:37:58;;;;;;;4.25;3.85;;;4.90;99.90;;;;;;5035848;28;20221;-55
2021/11/27 05:40:25;;;;;;;4.32;3.92;;;4.90;99.90;;;;;;5035743;28;20313;-55
2021/11/27 05:42:53;;;;;;;4.13;3.75;;;4.90;99.90;;;;;;5035809;28;20547;-55
2021/11/27 05:45:26;;;;;;;5.63;5.05;;;4.80;99.90;;;;;;5035761;28;20242;-55
2021/11/27 05:47:53;;;;;;;5.18;3.90;;;4.80;99.90;;;;;;5035723;28;20576;-55
2021/11/27 05:50:21;;;;;;;4.75;3.70;;;4.80;99.90;;;;;;5035400;28;20257;-55
2021/11/27 05:52:50;;;;;;;3.50;3.20;;;4.70;99.90;;;;;;5035401;28;20236;-55
2021/11/27 05:55:18;;;;;;;4.43;3.72;;;4.70;99.90;;;;;;5035487;28;20208;-55
2021/11/27 05:57:45;;;;;;;4.60;4.20;;;4.70;99.90;;;;;;5035119;28;20213;-54
2021/11/27 06:00:14;;;;;;;4.10;3.70;;;4.70;99.90;;;;;;5035162;28;20717;-55
2021/11/27 06:02:42;;;;;;;4.63;3.65;;;4.60;99.90;;;;;;5035253;28;20233;-55
2021/11/27 06:05:10;;;;;;;5.03;3.60;;;4.60;99.90;;;;;;5035320;28;20253;-55
2021/11/27 06:07:37;;;;;;;4.43;4.03;;;4.60;99.90;;;;;;5034885;28;20720;-55
2021/11/27 06:10:08;;;;;;;3.80;3.40;;;4.60;99.90;;;;;;5034788;28;20325;-54
2021/11/27 06:12:35;;;;;;;4.47;3.60;;;4.50;99.90;;;;;;5035024;28;20226;-55
2021/11/27 06:15:04;;;;;;;4.50;3.95;;;4.60;99.90;;;;;;5034867;28;20202;-55
2021/11/27 06:17:31;;;;;;;4.07;3.63;;;4.60;99.90;;;;;;5034769;28;20202;-55
2021/11/27 06:19:58;;;;;;;4.07;3.67;;;4.50;99.90;;;;;;5034396;28;20710;-54
2021/11/27 06:22:26;;;;;;;4.65;4.03;;;4.50;99.90;;;;;;5035001;28;20214;-54
2021/11/27 06:24:53;;;;;;;4.85;4.35;;;4.60;99.90;;;;;;5034764;28;20216;-54
2021/11/27 06:27:21;;;;;;;4.40;4.00;;;4.50;99.90;;;;;;5034841;28;20290;-55
2021/11/27 06:29:50;;;;;;;4.38;3.97;;;4.60;99.90;;;;;;5034517;28;20226;-55
2021/11/27 06:32:22;;;;;;;5.53;4.65;;;4.60;99.90;;;;;;5034165;28;20228;-55
2021/11/27 06:34:51;;;;;;;5.05;4.22;;;4.50;99.90;;;;;;5034852;28;20339;-55
2021/11/27 06:37:19;;;;;;;5.20;4.65;;;4.50;99.90;;;;;;5034836;28;20289;-55
2021/11/27 06:39:46;;;;;;;4.78;4.35;;;4.50;99.90;;;;;;5035022;28;20565;-53
2021/11/27 06:42:14;;;;;;;5.30;4.80;;;4.50;99.90;;;;;;5034686;28;20242;-55
2021/11/27 06:44:47;;;;;;;5.82;5.25;;;4.50;99.90;;;;;;5035379;28;20659;-55
2021/11/27 06:47:15;;;;;;;5.63;5.13;;;4.50;99.90;;;;;;5035018;28;20183;-55
2021/11/27 06:49:42;;;;;;;5.70;5.20;;;4.50;99.90;;;;;;5034931;28;20738;-55
2021/11/27 06:52:10;;;;;;;5.35;4.65;;;4.50;99.90;;;;;;5034504;28;20229;-54
2021/11/27 06:54:37;;;;;;;6.00;5.40;;;4.50;99.90;;;;;;5034800;28;20746;-54
2021/11/27 06:57:05;;;;;;;5.00;4.10;;;4.50;99.90;;;;;;5034770;28;20246;-53
2021/11/27 06:59:33;;;;;;;5.22;4.25;;;4.60;99.90;;;;;;5034624;28;20246;-54
2021/11/27 07:02:02;;;;;;;5.18;4.68;;;4.50;99.90;;;;;;5034896;28;20233;-54
2021/11/27 07:04:30;;;;;;;5.07;4.57;;;4.50;99.90;;;;;;5035193;28;20285;-54
2021/11/27 07:06:58;;;;;;;5.50;5.00;;;4.50;99.90;;;;;;5035200;28;20234;-54
2021/11/27 07:09:26;;;;;;;5.00;4.38;;;4.50;99.90;;;;;;5035043;28;20313;-55
2021/11/27 07:11:53;;;;;;;5.18;4.22;;;4.50;99.90;;;;;;5034685;28;20241;-54
2021/11/27 07:14:20;;;;;;;5.43;4.50;;;4.50;99.90;;;;;;5034729;28;20571;-54
2021/11/27 07:16:48;;;;;;;5.05;4.65;;;4.40;99.90;;;;;;5034705;28;20734;-54
2021/11/27 07:19:16;;;;;;;4.80;4.35;;;4.40;99.90;;;;;;5034599;28;20284;-54
2021/11/27 07:21:44;;;;;;;5.53;4.95;;;4.50;99.90;;;;;;5033996;28;20281;-55
2021/11/27 07:24:11;;;;;;;5.88;4.80;;;4.50;99.90;;;;;;5033847;28;20300;-54
2021/11/27 07:26:38;;;;;;;5.35;4.70;;;4.40;99.90;;;;;;5033579;28;20229;-55
2021/11/27 07:29:06;;;;;;;5.85;5.30;;;4.40;99.90;;;;;;5033673;28;20284;-55
2021/11/27 07:31:33;;;;;;;7.05;5.50;;;4.50;99.90;;;;;;5033857;28;20217;-55
2021/11/27 07:34:00;;;;;;;7.75;6.68;;;4.50;99.90;;;;;;5033746;28;20256;-55
2021/11/27 07:36:29;;;;;;;7.03;5.45;;;4.50;99.90;;;;;;5033502;28;20665;-55
2021/11/27 07:38:57;;;;;;;5.72;5.22;;;4.50;99.90;;;;;;5033262;28;20210;-55
2021/11/27 07:41:24;;;;;;;6.00;5.45;;;4.50;99.90;;;;;;5033293;28;20289;-55
2021/11/27 07:43:52;;;;;;;5.93;5.20;;;4.50;99.90;;;;;;5033232;28;20237;-55
2021/11/27 07:46:19;;;;;;;7.85;5.90;;;4.50;99.90;;;;;;5033868;28;20205;-55
2021/11/27 07:48:46;;;;;;;6.50;5.60;;;4.50;99.90;;;;;;5034083;28;20265;-55
2021/11/27 07:51:14;;;;;;;6.25;5.63;;;4.50;99.90;;;;;;5033432;28;20728;-54
2021/11/27 07:53:43;;;;;;;7.53;6.30;;;4.60;99.90;;;;;;5033050;28;20237;-54
2021/11/27 07:56:11;;;;;;;7.55;6.75;;;4.60;99.90;;;;;;5033086;28;20202;-54
2021/11/27 07:58:38;;;;;;;7.35;5.43;;;4.60;99.90;;;;;;5033144;28;20256;-55
2021/11/27 08:01:06;;;;;;;6.65;5.93;;;4.60;99.90;;;;;;5032964;28;20784;-54
2021/11/27 08:03:33;;;;;;;6.93;5.60;;;4.60;99.90;;;;;;5032957;28;20685;-54
2021/11/27 08:06:00;;;;;;;6.80;6.10;;;4.60;99.90;;;;;;5032939;28;20248;-54
2021/11/27 08:08:28;;;;;;;7.20;5.82;;;4.60;99.90;;;;;;5033054;28;20322;-54
2021/11/27 08:10:56;;;;;;;6.88;5.90;;;4.70;99.90;;;;;;5033208;28;20674;-54
2021/11/27 08:13:24;;;;;;;6.25;5.60;;;4.60;99.90;;;;;;5033593;28;20626;-54
2021/11/27 08:15:51;;;;;;;9.35;6.45;;;4.60;99.90;;;;;;5033391;28;20577;-54
2021/11/27 08:18:19;;;;;;;6.75;6.05;;;4.70;99.90;;;;;;5033308;28;20666;-54
2021/11/27 08:20:49;;;;;;;7.55;5.97;;;4.70;99.90;;;;;;5033654;28;20329;-55
2021/11/27 08:23:17;;;;;;;7.05;6.07;;;4.70;99.90;;;;;;5032948;28;20202;-55
2021/11/27 08:25:44;;;;;;;9.50;6.22;;;4.80;99.90;;;;;;5032849;28;20238;-55
2021/11/27 08:28:13;;;;;;;7.57;6.78;;;4.80;99.90;;;;;;5032938;28;20317;-55
2021/11/27 08:30:41;;;;;;;8.45;6.32;;;5.00;99.90;;;;;;5033146;28;20218;-56
2021/11/27 08:33:12;;;;;;;6.53;5.70;;;5.00;99.90;;;;;;5033459;28;20213;-55
2021/11/27 08:35:40;;;;;;;6.68;6.00;;;5.00;99.90;;;;;;5033310;28;20183;-57
2021/11/27 08:38:07;;;;;;;6.18;5.22;;;5.10;99.90;;;;;;5033145;28;20252;-56
2021/11/27 08:40:34;;;;;;;8.00;6.50;;;5.10;99.90;;;;;;5033013;28;20313;-55
2021/11/27 08:43:02;;;;;;;6.70;6.00;;;5.20;99.90;;;;;;5033021;28;20206;-55
2021/11/27 08:45:30;;;;;;;8.23;5.95;;;5.30;99.90;;;;;;5032656;28;20292;-54
2021/11/27 08:47:58;;;;;;;8.20;7.35;;;5.30;99.90;;;;;;5032882;28;20296;-54
2021/11/27 08:50:25;;;;;;;10.60;8.50;;;5.40;99.90;;;;;;5032624;28;20265;-56
2021/11/27 08:52:53;;;;;;;7.35;6.63;;;5.50;99.90;;;;;;5032447;28;20199;-55
2021/11/27 08:55:20;;;;;;;10.48;6.50;;;5.60;99.90;;;;;;5035999;28;20230;-55
2021/11/27 08:57:48;;;;;;;8.57;7.68;;;5.70;99.90;;;;;;5037410;28;20206;-55
2021/11/27 09:00:16;;;;;;;9.77;6.65;;;5.70;99.90;;;;;;5036645;28;20260;-55
2021/11/27 09:02:45;;;;;;;7.75;7.05;;;5.80;99.90;;;;;;5037002;28;20289;-55
2021/11/27 09:05:13;;;;;;;7.72;6.90;;;5.80;99.90;;;;;;5036749;28;20199;-54
2021/11/27 09:07:40;;;;;;;7.40;6.80;;;5.80;99.90;;;;;;5037165;28;20285;-55
2021/11/27 09:10:09;;;;;;;7.43;6.10;;;5.90;99.90;;;;;;5036813;28;20641;-55
2021/11/27 09:12:38;;;;;;;6.65;5.50;;;5.90;99.90;;;;;;5037512;28;20242;-56
2021/11/27 09:15:06;;;;;;;6.55;5.95;;;5.90;99.90;;;;;;5038124;28;20249;-55
2021/11/27 09:17:34;;;;;;;7.03;6.32;;;6.00;99.90;;;;;;5036965;28;20297;-54
2021/11/27 09:20:03;;;;;;;6.53;5.93;;;6.00;99.90;;;;;;5036751;28;20266;-54
2021/11/27 09:22:30;;;;;;;6.68;5.97;;;6.10;99.90;;;;;;5037033;28;20293;-55
2021/11/27 09:24:57;;;;;;;7.70;6.60;;;6.20;99.90;;;;;;5036815;28;20239;-54
2021/11/27 09:27:25;;;;;;;6.65;6.05;;;6.30;99.90;;;;;;5036330;28;20293;-55
2021/11/27 09:29:52;;;;;;;5.97;5.38;;;6.40;99.90;;;;;;5036268;28;20226;-54
2021/11/27 09:32:19;;;;;;;6.10;5.50;;;6.40;99.90;;;;;;5036117;28;20636;-55
2021/11/27 09:34:47;;;;;;;6.32;5.60;;;6.40;99.90;;;;;;5035815;28;20252;-55
2021/11/27 09:37:17;;;;;;;5.88;5.28;;;6.30;99.90;;;;;;5035619;28;20269;-54
2021/11/27 09:39:46;;;;;;;6.20;5.60;;;6.30;99.90;;;;;;5035806;28;20220;-53
2021/11/27 09:42:15;;;;;;;5.80;5.22;;;6.30;99.90;;;;;;5035650;28;20203;-54
2021/11/27 09:44:48;;;;;;;5.15;4.60;;;6.20;99.90;;;;;;5035494;28;20203;-54
2021/11/27 09:47:17;;;;;;;5.65;5.13;;;6.20;99.90;;;;;;5035378;28;20275;-54
2021/11/27 09:49:45;;;;;;;5.60;5.00;;;6.20;99.90;;;;;;5035233;28;20319;-54
2021/11/27 09:52:13;;;;;;;6.60;6.00;;;6.30;99.90;;;;;;5035491;28;20287;-56
2021/11/27 09:54:42;;;;;;;6.60;6.00;;;6.30;99.90;;;;;;5035473;28;20291;-55
2021/11/27 09:57:10;;;;;;;6.70;5.60;;;6.20;99.90;;;;;;5035354;28;20701;-55
2021/11/27 09:59:39;;;;;;;7.00;5.45;;;6.30;99.90;;;;;;5035159;28;20233;-55
2021/11/27 10:02:10;;;;;;;7.10;5.97;;;6.30;99.90;;;;;;5035028;28;20207;-56
2021/11/27 10:04:39;;;;;;;7.00;6.22;;;6.30;99.90;;;;;;5034941;28;20226;-55
2021/11/27 10:07:10;;;;;;;6.15;5.55;;;6.30;99.90;;;;;;5034768;28;20211;-56
2021/11/27 10:09:38;;;;;;;6.13;5.30;;;6.40;99.90;;;;;;5035104;28;20235;-56
2021/11/27 10:12:08;;;;;;;7.97;4.88;;;6.50;99.90;;;;;;5034692;28;20297;-56
2021/11/27 10:14:39;;;;;;;5.00;4.55;;;6.60;99.90;;;;;;5034714;28;20208;-54
2021/11/27 10:17:13;;;;;;;4.97;4.47;;;6.60;99.90;;;;;;5035039;28;20190;-54
2021/11/27 10:22:13;;;;;;;5.90;4.65;;;6.60;99.90;;;;;;5054003;28;20269;-59
2021/11/27 10:24:43;;;;;;;4.22;3.90;;;6.60;99.90;;;;;;5055134;28;20233;-58
2021/11/27 10:27:21;;;;;;;4.55;4.15;;;6.50;99.90;;;;;;5055805;28;20198;-58
2021/11/27 10:30:05;;;;;;;4.38;3.97;;;6.50;99.90;;;;;;5054922;28;20759;-58
2021/11/27 10:32:36;;;;;;;4.78;4.35;;;6.50;99.90;;;;;;5055594;28;20217;-57
2021/11/27 10:35:06;;;;;;;4.03;3.58;;;6.40;99.90;;;;;;5056190;28;20197;-58
2021/11/27 10:37:41;;;;;;;3.83;3.42;;;6.40;99.90;;;;;;5055277;28;20197;-59
2021/11/27 10:40:11;;;;;;;5.35;4.85;;;6.40;99.90;;;;;;5055142;28;20315;-58
2021/11/27 10:42:45;;;;;;;4.68;4.25;;;6.40;99.90;;;;;;5055243;28;20233;-59
2021/11/27 10:45:19;;;;;;;4.07;3.75;;;6.30;99.90;;;;;;5055450;28;20185;-59
2021/11/27 10:47:47;;;;;;;3.78;3.47;;;6.30;99.90;;;;;;5055229;28;20228;-59
2021/11/27 10:50:21;;;;;;;4.60;4.20;;;6.30;99.90;;;;;;5055141;28;20313;-57
2021/11/27 10:52:50;;;;;;;6.32;4.22;;;6.20;99.90;;;;;;5055389;28;20182;-58
2021/11/27 10:55:21;;;;;;;4.10;3.80;;;6.20;99.90;;;;;;5055053;28;20302;-58
2021/11/27 10:57:55;;;;;;;5.25;3.85;;;6.20;99.90;;;;;;5055192;28;20213;-58
2021/11/27 11:00:35;;;;;;;3.80;3.50;;;6.10;99.90;;;;;;5054690;28;20757;-58
2021/11/27 11:03:04;;;;;;;3.88;3.47;;;6.00;99.90;;;;;;5055029;28;20191;-58
2021/11/27 11:05:35;;;;;;;4.13;3.72;;;5.90;99.90;;;;;;5054170;28;20690;-58
2021/11/27 11:08:04;;;;;;;3.88;3.58;;;5.90;99.90;;;;;;5054236;28;20221;-61
2021/11/27 11:10:32;;;;;;;4.43;4.03;;;5.80;99.90;;;;;;5055484;28;20312;-61
2021/11/27 11:13:04;;;;;;;3.88;3.53;;;5.80;99.90;;;;;;5059011;28;20206;-61
2021/11/27 11:15:33;;;;;;;4.53;4.13;;;5.80;99.90;;;;;;5064191;28;20217;-59
2021/11/27 11:18:16;;;;;;;4.30;3.90;;;5.90;99.90;;;;;;5058139;28;20202;-58
2021/11/27 11:20:47;;;;;;;4.20;3.80;;;5.90;99.90;;;;;;5061108;28;20230;-60
2021/11/27 11:23:23;;;;;;;4.80;4.40;;;5.80;99.90;;;;;;5062884;28;20190;-62
2021/11/27 11:25:59;;;;;;;4.88;4.28;;;5.80;99.90;;;;;;5060251;28;20220;-60
2021/11/27 11:28:30;;;;;;;5.35;4.63;;;5.90;99.90;;;;;;5056178;28;20215;-60
2021/11/27 11:31:04;;;;;;;5.90;4.95;;;5.90;99.90;;;;;;5062829;28;20226;-59
2021/11/27 11:33:33;;;;;;;5.15;4.65;;;5.90;99.90;;;;;;5063987;28;20194;-58
2021/11/27 11:36:01;;;;;;;5.47;4.20;;;5.90;99.90;;;;;;5062997;28;20265;-59
2021/11/27 11:38:28;;;;;;;4.40;4.00;;;6.00;99.90;;;;;;5062274;28;20681;-59
2021/11/27 11:40:56;;;;;;;6.80;3.80;;;6.10;99.90;;;;;;5056164;28;20712;-58
2021/11/27 11:43:23;;;;;;;4.28;3.90;;;6.10;99.90;;;;;;5054229;28;20255;-61
2021/11/27 11:45:52;;;;;;;8.57;5.80;;;6.10;99.90;;;;;;5053866;28;20237;-57
2021/11/27 11:48:22;;;;;;;8.43;7.15;;;6.10;99.90;;;;;;5053726;28;20198;-60
2021/11/27 11:50:57;;;;;;;10.20;6.45;;;6.10;99.90;;;;;;5053992;28;20283;-57
2021/11/27 11:53:31;;;;;;;5.25;4.75;;;6.10;99.90;;;;;;5053838;28;20221;-56
2021/11/27 11:56:01;;;;;;;4.85;3.63;;;6.20;99.90;;;;;;5053608;28;20244;-59
2021/11/27 11:58:32;;;;;;;5.20;4.70;;;6.30;99.90;;;;;;5053668;28;20218;-59
2021/11/27 12:01:04;;;;;;;3.92;3.63;;;6.30;99.90;;;;;;5053164;28;20704;-59
2021/11/27 12:03:36;;;;;;;4.93;4.10;;;6.40;99.90;;;;;;5053774;28;20192;-60
2021/11/27 12:06:08;;;;;;;4.65;4.25;;;6.50;99.90;;;;;;5053951;28;20202;-57
2021/11/27 12:09:07;;;;;;;4.25;3.85;;;6.60;99.90;;;;;;5054648;28;20233;-59
2021/11/27 12:12:05;;;;;;;4.75;4.35;;;6.60;99.90;;;;;;4973828;28;20395;-60
2021/11/27 12:15:00;;;;;;;4.50;4.05;;;6.60;99.90;;;;;;5052991;28;20209;-59
2021/11/27 12:17:32;;;;;;;4.55;4.15;;;6.60;99.90;;;;;;5007693;28;20224;-59
2021/11/27 12:20:02;;;;;;;3.92;3.63;;;6.50;99.90;;;;;;5057442;28;20224;-60
2021/11/27 12:22:39;;;;;;;4.18;3.60;;;6.50;99.60;;;;;;5054603;28;20572;-61
2021/11/27 12:25:09;;;;;;;4.82;3.88;;;6.40;99.50;;;;;;5053221;28;20217;-58
2021/11/27 12:28:24;;;;;;;4.55;4.15;;;6.40;99.50;;;;;;5053369;28;20224;-59
2021/11/27 12:31:03;;;;;;;4.78;4.30;;;6.40;99.30;;;;;;5056821;28;20697;-60
2021/11/27 12:33:59;;;;;;;5.38;4.47;;;6.30;99.20;;;;;;5057355;28;20189;-61
2021/11/27 12:36:47;;;;;;;6.97;5.03;;;6.30;99.10;;;;;;5011235;28;20731;-60
2021/11/27 12:39:32;;;;;;;7.05;5.65;;;6.30;99.10;;;;;;5058180;28;20228;-60
2021/11/27 12:42:19;;;;;;;6.80;5.55;;;6.30;98.90;;;;;;5055136;28;20634;-59
2021/11/27 12:44:49;;;;;;;8.40;6.82;;;6.20;98.90;;;;;;5058070;28;20244;-60
2021/11/27 12:47:34;;;;;;;7.07;5.90;;;6.10;98.60;;;;;;5058398;28;20194;-60
2021/11/27 12:50:12;;;;;;;6.07;5.53;;;6.10;98.80;;;;;;5057658;28;20226;-60
2021/11/27 12:52:44;;;;;;;5.80;4.88;;;6.10;98.80;;;;;;5058412;28;20192;-60
2021/11/27 12:55:33;;;;;;;6.10;5.47;;;6.00;98.50;;;;;;5058248;28;20193;-60
2021/11/27 12:58:01;;;;;;;6.30;5.53;;;6.00;98.20;;;;;;5058131;28;20228;-60
2021/11/27 13:00:29;;;;;;;6.38;5.20;;;5.90;98.00;;;;;;5057213;28;20254;-60
2021/11/27 13:03:00;;;;;;;5.40;4.90;;;5.90;98.00;;;;;;5057633;28;20233;-60
2021/11/27 13:05:31;;;;;;;5.80;5.20;;;5.90;97.50;;;;;;5058422;28;20224;-60
2021/11/27 13:08:00;;;;;;;5.85;4.88;;;5.80;97.40;;;;;;5057453;28;20210;-60
2021/11/27 13:10:32;;;;;;;5.97;5.30;;;5.80;97.00;;;;;;5057206;28;20265;-59
2021/11/27 13:13:03;;;;;;;7.40;6.15;;;5.80;96.80;;;;;;5057021;28;20277;-59